Time,TemperatureF,DewpointF,PressureIn,WindDirection,WindDirectionDegrees,WindSpeedMPH,WindSpeedGustMPH,Humidity,HourlyPrecipIn,Conditions,Clouds,dailyrainin,SoftwareType,DateUTC
2013-03-07 00:00:00,36.3,21.3,29.85,SSW,211,3.1,4.9,54,0.00,,---,0.00,VWS V14.01,2013-03-07 07:00:00,
2013-03-07 00:05:00,36.1,21.1,29.85,South,185,4.0,5.4,54,0.00,,---,0.00,VWS V14.01,2013-03-07 07:05:00,
2013-03-07 00:10:00,36.1,21.1,29.85,South,176,5.4,5.4,54,0.00,,---,0.00,VWS V14.01,2013-03-07 07:10:00,
2013-03-07 00:15:00,36.3,20.8,29.85,SSE,151,3.1,3.1,53,0.00,,---,0.00,VWS V14.01,2013-03-07 07:15:00,
2013-03-07 00:20:00,35.8,20.3,29.85,SE,126,2.7,4.0,53,0.00,,---,0.00,VWS V14.01,2013-03-07 07:20:00,
2013-03-07 00:25:00,35.6,20.6,29.88,South,188,5.8,5.8,54,0.00,,---,0.00,VWS V14.01,2013-03-07 07:25:00,
2013-03-07 00:30:00,36.0,20.5,29.88,SSW,195,6.3,7.6,53,0.00,,---,0.00,VWS V14.01,2013-03-07 07:30:00,
2013-03-07 00:35:00,36.3,20.4,29.88,WSW,237,8.1,10.1,52,0.00,,---,0.00,VWS V14.01,2013-03-07 07:35:00,
2013-03-07 00:40:00,36.7,19.8,29.88,SSW,196,8.1,10.1,50,0.00,,---,0.00,VWS V14.01,2013-03-07 07:40:00,
2013-03-07 00:45:00,36.9,20.0,29.88,SSW,200,7.6,7.6,50,0.00,,---,0.00,VWS V14.01,2013-03-07 07:45:00,
2013-03-07 00:50:00,37.0,19.2,29.88,SSE,162,4.0,9.6,48,0.00,,---,0.00,VWS V14.01,2013-03-07 07:50:00,
2013-03-07 00:55:00,36.7,18.9,29.91,SE,128,2.7,9.6,48,0.00,,---,0.00,VWS V14.01,2013-03-07 07:55:00,
2013-03-07 01:00:00,36.3,19.0,29.91,SSE,152,0.0,2.2,49,0.00,,---,0.00,VWS V14.01,2013-03-07 08:00:00,
2013-03-07 01:05:00,35.8,18.5,29.91,SSW,192,0.0,3.1,49,0.00,,---,0.00,VWS V14.01,2013-03-07 08:05:00,
2013-03-07 01:10:00,35.4,18.6,29.91,SE,133,0.0,3.1,50,0.00,,---,0.00,VWS V14.01,2013-03-07 08:10:00,
2013-03-07 01:15:00,35.1,18.3,29.91,SE,133,0.0,0.0,50,0.00,,---,0.00,VWS V14.01,2013-03-07 08:15:00,
2013-03-07 01:20:00,35.1,18.3,29.91,SSW,203,0.0,0.0,50,0.00,,---,0.00,VWS V14.01,2013-03-07 08:20:00,
2013-03-07 01:25:00,35.1,18.3,29.91,West,261,0.0,4.0,50,0.00,,---,0.00,VWS V14.01,2013-03-07 08:25:00,
2013-03-07 01:30:00,35.2,18.9,29.91,SW,217,4.0,4.0,51,0.00,,---,0.00,VWS V14.01,2013-03-07 08:30:00,
2013-03-07 01:35:00,35.4,19.1,29.91,SE,146,4.0,5.4,51,0.00,,---,0.00,VWS V14.01,2013-03-07 08:35:00,
2013-03-07 01:40:00,35.4,18.6,29.91,SSE,161,5.8,8.3,50,0.00,,---,0.00,VWS V14.01,2013-03-07 08:40:00,
2013-03-07 01:45:00,35.4,18.6,29.91,SSE,154,4.9,8.3,50,0.00,,---,0.00,VWS V14.01,2013-03-07 08:45:00,
2013-03-07 01:50:00,35.4,18.6,29.91,SE,140,5.8,8.3,50,0.00,,---,0.00,VWS V14.01,2013-03-07 08:50:00,
2013-03-07 01:55:00,35.6,18.3,29.94,WSW,237,3.1,8.3,49,0.00,,---,0.00,VWS V14.01,2013-03-07 08:55:00,
2013-03-07 02:00:00,35.4,18.2,29.94,West,265,0.0,0.0,49,0.00,,---,0.00,VWS V14.01,2013-03-07 09:00:00,
2013-03-07 02:05:00,35.1,17.8,29.94,North,357,0.0,0.0,49,0.00,,---,0.00,VWS V14.01,2013-03-07 09:05:00,
2013-03-07 02:10:00,34.9,17.7,29.94,NW,319,0.0,0.0,49,0.00,,---,0.00,VWS V14.01,2013-03-07 09:10:00,
2013-03-07 02:15:00,34.7,17.5,29.94,WSW,247,0.0,0.0,49,0.00,,---,0.00,VWS V14.01,2013-03-07 09:15:00,
2013-03-07 02:20:00,34.3,17.2,29.94,WSW,247,0.0,0.0,49,0.00,,---,0.00,VWS V14.01,2013-03-07 09:20:00,
2013-03-07 02:25:00,34.5,17.8,29.94,WSW,240,0.0,2.7,50,0.00,,---,0.00,VWS V14.01,2013-03-07 09:25:00,
2013-03-07 02:30:00,34.5,17.8,29.94,SSE,159,0.0,0.0,50,0.00,,---,0.00,VWS V14.01,2013-03-07 09:30:00,
2013-03-07 02:35:00,34.5,17.3,29.94,SSE,167,2.7,4.0,49,0.00,,---,0.00,VWS V14.01,2013-03-07 09:35:00,
2013-03-07 02:40:00,34.9,17.2,29.94,SSW,194,0.0,7.2,48,0.00,,---,0.00,VWS V14.01,2013-03-07 09:40:00,
2013-03-07 02:45:00,35.1,17.4,29.94,South,191,0.0,2.7,48,0.00,,---,0.00,VWS V14.01,2013-03-07 09:45:00,
2013-03-07 02:50:00,34.7,17.0,29.94,SW,220,0.0,2.7,48,0.00,,---,0.00,VWS V14.01,2013-03-07 09:50:00,
2013-03-07 02:56:00,34.3,16.7,29.94,SSE,148,0.0,2.7,48,0.00,,---,0.00,VWS V14.01,2013-03-07 09:56:00,
2013-03-07 03:01:00,34.5,16.9,29.94,SW,216,0.0,0.0,48,0.00,,---,0.00,VWS V14.01,2013-03-07 10:01:00,
2013-03-07 03:06:00,34.7,16.5,29.94,West,276,3.6,5.8,47,0.00,,---,0.00,VWS V14.01,2013-03-07 10:06:00,
2013-03-07 03:11:00,34.9,16.7,29.94,WSW,257,2.2,5.8,47,0.00,,---,0.00,VWS V14.01,2013-03-07 10:11:00,
2013-03-07 03:16:00,34.9,16.2,29.94,SW,226,0.0,2.7,46,0.00,,---,0.00,VWS V14.01,2013-03-07 10:16:00,
2013-03-07 03:21:00,34.9,16.2,29.94,South,181,0.0,4.9,46,0.00,,---,0.00,VWS V14.01,2013-03-07 10:21:00,
2013-03-07 03:26:00,34.7,16.0,29.94,South,180,2.7,4.9,46,0.00,,---,0.00,VWS V14.01,2013-03-07 10:26:00,
2013-03-07 03:31:00,34.5,15.9,29.94,SSW,206,2.7,3.1,46,0.00,,---,0.00,VWS V14.01,2013-03-07 10:31:00,
2013-03-07 03:36:00,34.3,15.7,29.94,West,281,0.0,3.1,46,0.00,,---,0.00,VWS V14.01,2013-03-07 10:36:00,
2013-03-07 03:41:00,34.5,15.9,29.97,South,189,2.7,3.1,46,0.00,,---,0.00,VWS V14.01,2013-03-07 10:41:00,
2013-03-07 03:46:00,34.3,15.7,29.97,SSW,196,0.0,0.0,46,0.00,,---,0.00,VWS V14.01,2013-03-07 10:46:00,
2013-03-07 03:51:00,34.3,15.7,29.97,SE,146,0.0,4.9,46,0.00,,---,0.00,VWS V14.01,2013-03-07 10:51:00,
2013-03-07 03:56:00,34.5,15.9,29.97,SSW,193,0.0,5.8,46,0.00,,---,0.00,VWS V14.01,2013-03-07 10:56:00,
2013-03-07 04:01:00,34.7,15.6,29.97,South,184,0.0,0.0,45,0.00,,---,0.00,VWS V14.01,2013-03-07 11:01:00,
2013-03-07 04:06:00,34.5,15.4,29.97,SW,227,0.0,0.0,45,0.00,,---,0.00,VWS V14.01,2013-03-07 11:06:00,
2013-03-07 04:11:00,34.5,15.4,29.97,SW,231,0.0,0.0,45,0.00,,---,0.00,VWS V14.01,2013-03-07 11:11:00,
2013-03-07 04:16:00,34.3,15.2,29.97,WSW,240,0.0,0.0,45,0.00,,---,0.00,VWS V14.01,2013-03-07 11:16:00,
2013-03-07 04:21:00,34.2,15.1,29.97,SW,214,0.0,2.7,45,0.00,,---,0.00,VWS V14.01,2013-03-07 11:21:00,
2013-03-07 04:26:00,34.3,15.2,29.97,SW,214,0.0,2.7,45,0.00,,---,0.00,VWS V14.01,2013-03-07 11:26:00,
2013-03-07 04:31:00,34.5,15.4,29.97,SW,214,0.0,0.0,45,0.00,,---,0.00,VWS V14.01,2013-03-07 11:31:00,
2013-03-07 04:36:00,34.3,15.2,29.97,SW,214,0.0,0.0,45,0.00,,---,0.00,VWS V14.01,2013-03-07 11:36:00,
2013-03-07 04:41:00,34.3,15.2,30.00,South,175,3.1,4.0,45,0.00,,---,0.00,VWS V14.01,2013-03-07 11:41:00,
2013-03-07 04:46:00,34.2,15.1,30.00,South,175,0.0,0.0,45,0.00,,---,0.00,VWS V14.01,2013-03-07 11:46:00,
2013-03-07 04:51:00,34.3,15.2,30.00,East,89,2.7,4.9,45,0.00,,---,0.00,VWS V14.01,2013-03-07 11:51:00,
2013-03-07 04:56:00,34.5,14.9,29.97,SSE,157,3.6,5.4,44,0.00,,---,0.00,VWS V14.01,2013-03-07 11:56:00,
2013-03-07 05:01:00,34.5,14.9,29.97,SE,136,5.4,5.8,44,0.00,,---,0.00,VWS V14.01,2013-03-07 12:01:00,
2013-03-07 05:06:00,34.7,15.0,29.97,SSW,192,2.2,8.1,44,0.00,,---,0.00,VWS V14.01,2013-03-07 12:06:00,
2013-03-07 05:11:00,34.9,14.7,30.00,SSE,160,5.4,9.2,43,0.00,,---,0.00,VWS V14.01,2013-03-07 12:11:00,
2013-03-07 05:16:00,35.1,14.8,30.00,SE,135,5.4,6.7,43,0.00,,---,0.00,VWS V14.01,2013-03-07 12:16:00,
2013-03-07 05:21:00,34.9,14.7,30.00,South,169,5.8,7.6,43,0.00,,---,0.00,VWS V14.01,2013-03-07 12:21:00,
2013-03-07 05:26:00,34.9,15.2,30.00,WSW,248,2.7,7.6,44,0.00,,---,0.00,VWS V14.01,2013-03-07 12:26:00,
2013-03-07 05:31:00,34.7,14.5,30.00,WSW,249,3.6,7.6,43,0.00,,---,0.00,VWS V14.01,2013-03-07 12:31:00,
2013-03-07 05:36:00,34.5,14.3,30.00,South,181,2.2,7.6,43,0.00,,---,0.00,VWS V14.01,2013-03-07 12:36:00,
2013-03-07 05:41:00,34.3,14.2,30.00,WSW,244,3.6,7.6,43,0.00,,---,0.00,VWS V14.01,2013-03-07 12:41:00,
2013-03-07 05:46:00,33.8,13.7,30.00,South,172,0.0,0.0,43,0.00,,---,0.00,VWS V14.01,2013-03-07 12:46:00,
2013-03-07 05:51:00,33.6,14.1,30.00,SE,131,2.7,5.8,44,0.00,,---,0.00,VWS V14.01,2013-03-07 12:51:00,
2013-03-07 05:56:00,33.6,14.6,30.00,SE,126,3.1,5.8,45,0.00,,---,0.00,VWS V14.01,2013-03-07 12:56:00,
2013-03-07 06:01:00,33.6,14.6,30.00,SE,136,0.0,4.0,45,0.00,,---,0.00,VWS V14.01,2013-03-07 13:01:00,
2013-03-07 06:06:00,33.6,14.6,30.00,ESE,116,2.7,4.0,45,0.00,,---,0.00,VWS V14.01,2013-03-07 13:06:00,
2013-03-07 06:11:00,33.6,14.6,30.00,East,92,2.7,4.0,45,0.00,,---,0.00,VWS V14.01,2013-03-07 13:11:00,
2013-03-07 06:16:00,33.6,14.6,30.00,South,177,4.0,6.3,45,0.00,,---,0.00,VWS V14.01,2013-03-07 13:16:00,
2013-03-07 06:21:00,33.8,14.7,30.00,SSE,160,2.7,6.3,45,0.00,,---,0.00,VWS V14.01,2013-03-07 13:21:00,
2013-03-07 06:26:00,33.6,14.6,30.00,SE,135,3.1,6.3,45,0.00,,---,0.00,VWS V14.01,2013-03-07 13:26:00,
2013-03-07 06:31:00,33.8,15.2,30.00,South,173,3.6,5.4,46,0.00,,---,0.00,VWS V14.01,2013-03-07 13:31:00,
2013-03-07 06:36:00,33.8,15.2,30.00,South,170,5.8,8.3,46,0.00,,---,0.00,VWS V14.01,2013-03-07 13:36:00,
2013-03-07 06:42:00,33.8,15.2,30.00,South,185,3.1,8.3,46,0.00,,---,0.00,VWS V14.01,2013-03-07 13:42:00,
2013-03-07 06:47:00,33.6,15.6,30.00,SE,140,3.1,4.0,47,0.00,,---,0.00,VWS V14.01,2013-03-07 13:47:00,
2013-03-07 06:52:00,33.6,15.6,30.00,SE,134,2.7,6.3,47,0.00,,---,0.00,VWS V14.01,2013-03-07 13:52:00,
2013-03-07 06:57:00,33.4,15.4,30.03,SSE,153,2.2,6.3,47,0.00,,---,0.00,VWS V14.01,2013-03-07 13:57:00,
2013-03-07 07:02:00,33.4,15.9,30.03,SSE,147,4.0,5.8,48,0.00,,---,0.00,VWS V14.01,2013-03-07 14:02:00,
2013-03-07 07:07:00,33.3,15.2,30.03,SE,146,3.1,6.3,47,0.00,,---,0.00,VWS V14.01,2013-03-07 14:07:00,
2013-03-07 07:12:00,33.1,15.1,30.03,SE,131,2.7,6.3,47,0.00,,---,0.00,VWS V14.01,2013-03-07 14:12:00,
2013-03-07 07:17:00,32.7,15.2,30.03,South,187,0.0,3.6,48,0.00,,---,0.00,VWS V14.01,2013-03-07 14:17:00,
2013-03-07 07:22:00,32.9,15.4,30.03,SSE,149,2.7,6.3,48,0.00,,---,0.00,VWS V14.01,2013-03-07 14:22:00,
2013-03-07 07:27:00,33.1,15.5,30.00,SSE,148,2.7,6.3,48,0.00,,---,0.00,VWS V14.01,2013-03-07 14:27:00,
2013-03-07 07:32:00,33.1,15.5,30.00,SE,136,2.7,3.6,48,0.00,,---,0.00,VWS V14.01,2013-03-07 14:32:00,
2013-03-07 07:37:00,32.9,15.4,30.00,SE,130,4.0,4.0,48,0.00,,---,0.00,VWS V14.01,2013-03-07 14:37:00,
2013-03-07 07:42:00,32.9,15.9,30.03,ESE,119,4.0,4.0,49,0.00,,---,0.00,VWS V14.01,2013-03-07 14:42:00,
2013-03-07 07:47:00,33.1,16.5,30.03,SE,125,3.1,3.6,50,0.00,,---,0.00,VWS V14.01,2013-03-07 14:47:00,
2013-03-07 07:52:00,33.3,16.6,30.03,South,182,2.2,4.0,50,0.00,,---,0.00,VWS V14.01,2013-03-07 14:52:00,
2013-03-07 07:57:00,34.0,17.3,30.03,SSE,163,0.0,4.0,50,0.00,,---,0.00,VWS V14.01,2013-03-07 14:57:00,
2013-03-07 08:02:00,35.6,18.8,30.03,SSE,157,3.6,3.6,50,0.00,,---,0.00,VWS V14.01,2013-03-07 15:02:00,
2013-03-07 08:08:00,37.6,20.6,30.03,SSE,165,2.7,4.0,50,0.00,,---,0.00,VWS V14.01,2013-03-07 15:08:00,
2013-03-07 08:13:00,38.1,20.2,30.03,SE,140,3.1,5.8,48,0.00,,---,0.00,VWS V14.01,2013-03-07 15:13:00,
2013-03-07 08:18:00,38.8,20.4,30.03,South,175,4.0,6.3,47,0.00,,---,0.00,VWS V14.01,2013-03-07 15:18:00,
2013-03-07 08:24:00,39.2,19.7,30.03,SE,139,5.4,6.3,45,0.00,,---,0.00,VWS V14.01,2013-03-07 15:24:00,
2013-03-07 08:29:00,38.7,19.2,30.03,SSE,159,4.0,6.3,45,0.00,,---,0.00,VWS V14.01,2013-03-07 15:29:00,
2013-03-07 08:34:00,37.8,17.8,30.03,SE,134,7.6,7.6,44,0.00,,---,0.00,VWS V14.01,2013-03-07 15:34:00,
2013-03-07 08:39:00,37.0,17.2,30.03,SE,141,4.9,7.6,44,0.00,,---,0.00,VWS V14.01,2013-03-07 15:39:00,
2013-03-07 08:44:00,36.9,17.0,30.03,SSE,165,4.9,7.6,44,0.00,,---,0.00,VWS V14.01,2013-03-07 15:44:00,
2013-03-07 08:49:00,36.7,16.8,30.03,SE,131,6.3,7.6,44,0.00,,---,0.00,VWS V14.01,2013-03-07 15:49:00,
2013-03-07 08:54:00,37.0,17.2,30.03,SSE,160,5.8,7.6,44,0.00,,---,0.00,VWS V14.01,2013-03-07 15:54:00,
2013-03-07 08:59:00,37.4,17.5,30.03,SSE,157,5.8,7.6,44,0.00,,---,0.00,VWS V14.01,2013-03-07 15:59:00,
2013-03-07 09:04:00,38.1,17.6,30.03,SE,126,3.6,7.6,43,0.00,,---,0.00,VWS V14.01,2013-03-07 16:04:00,
2013-03-07 09:09:00,38.7,18.1,30.03,South,173,6.7,7.6,43,0.00,,---,0.00,VWS V14.01,2013-03-07 16:09:00,
2013-03-07 09:14:00,39.2,18.0,30.03,SE,129,4.9,8.1,42,0.00,,---,0.00,VWS V14.01,2013-03-07 16:14:00,
2013-03-07 09:19:00,39.4,17.7,30.03,South,170,3.1,8.3,41,0.00,,---,0.00,VWS V14.01,2013-03-07 16:19:00,
2013-03-07 09:24:00,40.8,19.0,30.03,SSE,160,4.9,8.3,41,0.00,,---,0.00,VWS V14.01,2013-03-07 16:24:00,
2013-03-07 09:29:00,42.6,19.4,30.03,SSE,151,8.1,8.7,39,0.00,,---,0.00,VWS V14.01,2013-03-07 16:29:00,
2013-03-07 09:34:00,44.8,20.7,30.03,SE,143,4.5,8.3,38,0.00,,---,0.00,VWS V14.01,2013-03-07 16:34:00,
2013-03-07 09:39:00,45.3,20.6,30.03,SE,138,7.6,9.6,37,0.00,,---,0.00,VWS V14.01,2013-03-07 16:39:00,
2013-03-07 09:44:00,43.9,17.4,30.06,SSE,151,5.4,10.5,34,0.00,,---,0.00,VWS V14.01,2013-03-07 16:44:00,
2013-03-07 09:49:00,45.3,19.3,30.06,SE,136,3.1,6.3,35,0.00,,---,0.00,VWS V14.01,2013-03-07 16:49:00,
2013-03-07 09:54:00,46.9,19.4,30.06,SE,132,4.0,8.7,33,0.00,,---,0.00,VWS V14.01,2013-03-07 16:54:00,
2013-03-07 09:59:00,47.8,19.4,30.06,SE,131,6.3,8.7,32,0.00,,---,0.00,VWS V14.01,2013-03-07 16:59:00,
2013-03-07 10:04:00,47.8,18.7,30.06,SSE,151,4.0,8.1,31,0.00,,---,0.00,VWS V14.01,2013-03-07 17:04:00,
2013-03-07 10:09:00,48.2,18.2,30.06,East,100,3.6,8.1,30,0.00,,---,0.00,VWS V14.01,2013-03-07 17:09:00,
2013-03-07 10:14:00,48.6,17.8,30.06,SSE,168,3.1,8.7,29,0.00,,---,0.00,VWS V14.01,2013-03-07 17:14:00,
2013-03-07 10:19:00,47.1,16.5,30.06,East,99,4.0,8.7,29,0.00,,---,0.00,VWS V14.01,2013-03-07 17:19:00,
2013-03-07 10:24:00,46.2,15.7,30.06,SE,142,6.3,8.7,29,0.00,,---,0.00,VWS V14.01,2013-03-07 17:24:00,
2013-03-07 10:29:00,45.3,14.9,30.03,South,172,4.5,8.7,29,0.00,,---,0.00,VWS V14.01,2013-03-07 17:29:00,
2013-03-07 10:34:00,45.3,14.9,30.03,SSW,192,4.9,8.7,29,0.00,,---,0.00,VWS V14.01,2013-03-07 17:34:00,
2013-03-07 10:39:00,46.6,15.2,30.03,SW,221,3.1,8.7,28,0.00,,---,0.00,VWS V14.01,2013-03-07 17:39:00,
2013-03-07 10:44:00,48.7,17.1,30.06,ESE,112,3.1,8.7,28,0.00,,---,0.00,VWS V14.01,2013-03-07 17:44:00,
2013-03-07 10:49:00,49.5,17.7,30.06,South,176,5.4,6.3,28,0.00,,---,0.00,VWS V14.01,2013-03-07 17:49:00,
2013-03-07 10:54:00,50.2,17.5,30.06,ESE,121,0.0,6.3,27,0.00,,---,0.00,VWS V14.01,2013-03-07 17:54:00,
2013-03-07 10:59:00,49.5,16.0,30.06,SSW,205,3.1,6.3,26,0.00,,---,0.00,VWS V14.01,2013-03-07 17:59:00,
2013-03-07 11:04:00,49.5,16.0,30.06,South,181,3.6,4.9,26,0.00,,---,0.00,VWS V14.01,2013-03-07 18:04:00,
2013-03-07 11:09:00,50.2,16.6,30.06,SSE,162,2.7,5.4,26,0.00,,---,0.00,VWS V14.01,2013-03-07 18:09:00,
2013-03-07 11:14:00,50.7,17.1,30.06,South,190,0.0,5.4,26,0.00,,---,0.00,VWS V14.01,2013-03-07 18:14:00,
2013-03-07 11:19:00,52.5,18.6,30.06,South,187,5.4,5.8,26,0.00,,---,0.00,VWS V14.01,2013-03-07 18:19:00,
2013-03-07 11:24:00,51.8,15.2,30.06,SE,146,3.6,6.7,23,0.00,,---,0.00,VWS V14.01,2013-03-07 18:24:00,
2013-03-07 11:29:00,50.4,14.9,30.06,SSW,196,4.0,7.6,24,0.00,,---,0.00,VWS V14.01,2013-03-07 18:29:00,
2013-03-07 11:34:00,48.4,10.3,30.06,South,190,0.0,6.3,21,0.00,,---,0.00,VWS V14.01,2013-03-07 18:34:00,
2013-03-07 11:39:00,46.9,10.1,30.06,SW,220,0.0,7.6,22,0.00,,---,0.00,VWS V14.01,2013-03-07 18:39:00,
2013-03-07 11:44:00,47.5,12.5,30.06,South,188,6.7,7.6,24,0.00,,---,0.00,VWS V14.01,2013-03-07 18:44:00,
2013-03-07 11:49:00,50.2,16.6,30.06,South,170,5.4,5.4,26,0.00,,---,0.00,VWS V14.01,2013-03-07 18:49:00,
2013-03-07 11:54:00,50.5,15.1,30.06,ESE,102,3.1,8.1,24,0.00,,---,0.00,VWS V14.01,2013-03-07 18:54:00,
2013-03-07 11:59:00,51.1,15.6,30.06,SW,214,4.0,8.1,24,0.00,,---,0.00,VWS V14.01,2013-03-07 18:59:00,
2013-03-07 12:04:00,53.2,16.4,30.06,SE,144,2.7,5.4,23,0.00,,---,0.00,VWS V14.01,2013-03-07 19:04:00,
2013-03-07 12:09:00,52.9,14.0,30.06,NNW,328,2.2,8.7,21,0.00,,---,0.00,VWS V14.01,2013-03-07 19:09:00,
2013-03-07 12:14:00,52.5,15.8,30.06,SSW,197,5.4,8.7,23,0.00,,---,0.00,VWS V14.01,2013-03-07 19:14:00,
2013-03-07 12:19:00,51.1,12.5,30.06,South,175,3.6,6.7,21,0.00,,---,0.00,VWS V14.01,2013-03-07 19:19:00,
2013-03-07 12:24:00,49.8,11.5,30.06,East,89,0.0,6.7,21,0.00,,---,0.00,VWS V14.01,2013-03-07 19:24:00,
2013-03-07 12:30:00,49.5,11.2,30.06,ESE,115,2.7,6.7,21,0.00,,---,0.00,VWS V14.01,2013-03-07 19:30:00,
2013-03-07 12:35:00,48.9,10.7,30.06,ENE,72,3.1,7.6,21,0.00,,---,0.00,VWS V14.01,2013-03-07 19:35:00,
2013-03-07 12:40:00,48.2,10.1,30.06,NE,40,2.7,7.6,21,0.00,,---,0.00,VWS V14.01,2013-03-07 19:40:00,
2013-03-07 12:45:00,47.7,10.7,30.06,North,9,3.1,7.6,22,0.00,,---,0.00,VWS V14.01,2013-03-07 19:45:00,
2013-03-07 12:50:00,47.3,10.4,30.06,North,2,2.7,4.9,22,0.00,,---,0.00,VWS V14.01,2013-03-07 19:50:00,
2013-03-07 12:55:00,47.7,10.7,30.06,East,98,3.1,5.8,22,0.00,,---,0.00,VWS V14.01,2013-03-07 19:55:00,
2013-03-07 13:00:00,48.2,10.1,30.06,NE,53,3.1,6.3,21,0.00,,---,0.00,VWS V14.01,2013-03-07 20:00:00,
2013-03-07 13:05:00,48.7,10.6,30.06,ENE,75,0.0,4.9,21,0.00,,---,0.00,VWS V14.01,2013-03-07 20:05:00,
2013-03-07 13:10:00,48.9,10.7,30.06,NE,49,5.8,6.3,21,0.00,,---,0.00,VWS V14.01,2013-03-07 20:10:00,
2013-03-07 13:15:00,48.7,10.6,30.03,ENE,70,4.0,8.3,21,0.00,,---,0.00,VWS V14.01,2013-03-07 20:15:00,
2013-03-07 13:20:00,51.3,15.7,30.03,NE,53,4.9,6.3,24,0.00,,---,0.00,VWS V14.01,2013-03-07 20:20:00,
2013-03-07 13:25:00,49.3,11.0,30.03,NW,315,0.0,8.7,21,0.00,,---,0.00,VWS V14.01,2013-03-07 20:25:00,
2013-03-07 13:30:00,47.7,10.7,30.03,North,357,3.6,8.7,22,0.00,,---,0.00,VWS V14.01,2013-03-07 20:30:00,
2013-03-07 13:35:00,46.9,10.1,30.03,NW,322,2.2,6.3,22,0.00,,---,0.00,VWS V14.01,2013-03-07 20:35:00,
2013-03-07 13:40:00,46.9,10.1,30.03,NNW,337,3.1,6.3,22,0.00,,---,0.00,VWS V14.01,2013-03-07 20:40:00,
2013-03-07 13:45:00,46.2,9.5,30.03,North,0,3.1,6.3,22,0.00,,---,0.00,VWS V14.01,2013-03-07 20:45:00,
2013-03-07 13:50:00,45.9,9.2,30.03,North,353,3.6,5.8,22,0.00,,---,0.00,VWS V14.01,2013-03-07 20:50:00,
2013-03-07 13:55:00,47.5,10.6,30.03,WNW,299,3.1,5.8,22,0.00,,---,0.00,VWS V14.01,2013-03-07 20:55:00,
2013-03-07 14:00:00,50.0,11.6,30.03,NW,322,2.2,2.2,21,0.00,,---,0.00,VWS V14.01,2013-03-07 21:00:00,
2013-03-07 14:05:00,50.0,11.6,30.03,North,9,4.9,4.9,21,0.00,,---,0.00,VWS V14.01,2013-03-07 21:05:00,
2013-03-07 14:10:00,51.3,12.7,30.03,North,357,5.4,5.4,21,0.00,,---,0.00,VWS V14.01,2013-03-07 21:10:00,
2013-03-07 14:15:00,51.4,12.8,30.03,NNE,13,3.6,3.6,21,0.00,,---,0.00,VWS V14.01,2013-03-07 21:15:00,
2013-03-07 14:20:00,51.3,12.7,30.03,North,7,5.4,5.8,21,0.00,,---,0.00,VWS V14.01,2013-03-07 21:20:00,
2013-03-07 14:25:00,50.5,12.1,30.03,NE,53,3.1,8.1,21,0.00,,---,0.00,VWS V14.01,2013-03-07 21:25:00,
2013-03-07 14:30:00,50.2,11.8,30.03,North,11,6.3,6.3,21,0.00,,---,0.00,VWS V14.01,2013-03-07 21:30:00,
2013-03-07 14:35:00,50.9,12.4,30.03,NE,51,3.6,6.3,21,0.00,,---,0.00,VWS V14.01,2013-03-07 21:35:00,
2013-03-07 14:40:00,51.3,12.7,30.03,NE,53,2.7,6.3,21,0.00,,---,0.00,VWS V14.01,2013-03-07 21:40:00,
2013-03-07 14:45:00,52.2,13.4,30.03,NNE,26,2.7,2.7,21,0.00,,---,0.00,VWS V14.01,2013-03-07 21:45:00,
2013-03-07 14:50:00,51.4,12.8,30.03,North,4,2.7,5.4,21,0.00,,---,0.00,VWS V14.01,2013-03-07 21:50:00,
2013-03-07 14:55:00,51.1,10.3,30.03,North,0,2.7,5.8,19,0.00,,---,0.00,VWS V14.01,2013-03-07 21:55:00,
2013-03-07 15:00:00,52.7,13.9,30.03,North,10,2.7,2.7,21,0.00,,---,0.00,VWS V14.01,2013-03-07 22:00:00,
2013-03-07 15:05:00,52.9,10.6,30.03,NW,319,3.6,5.8,18,0.00,,---,0.00,VWS V14.01,2013-03-07 22:05:00,
2013-03-07 15:10:00,52.5,13.7,30.03,NNW,342,2.2,5.8,21,0.00,,---,0.00,VWS V14.01,2013-03-07 22:10:00,
2013-03-07 15:15:00,51.6,10.7,30.03,NNW,328,4.0,5.8,19,0.00,,---,0.00,VWS V14.01,2013-03-07 22:15:00,
2013-03-07 15:20:00,51.8,9.7,30.03,WNW,301,2.7,4.0,18,0.00,,---,0.00,VWS V14.01,2013-03-07 22:20:00,
2013-03-07 15:25:00,52.7,10.4,30.03,North,2,2.7,4.0,18,0.00,,---,0.00,VWS V14.01,2013-03-07 22:25:00,
2013-03-07 15:30:00,52.5,13.7,30.03,NE,39,3.6,3.6,21,0.00,,---,0.00,VWS V14.01,2013-03-07 22:30:00,
2013-03-07 15:35:00,51.3,12.7,30.03,North,10,4.9,6.3,21,0.00,,---,0.00,VWS V14.01,2013-03-07 22:35:00,
2013-03-07 15:40:00,49.1,8.6,30.03,NNE,15,3.1,6.3,19,0.00,,---,0.00,VWS V14.01,2013-03-07 22:40:00,
2013-03-07 15:45:00,49.3,8.8,30.03,NW,311,2.7,2.7,19,0.00,,---,0.00,VWS V14.01,2013-03-07 22:45:00,
2013-03-07 15:50:00,50.7,12.2,30.03,ENE,68,3.6,5.4,21,0.00,,---,0.00,VWS V14.01,2013-03-07 22:50:00,
2013-03-07 15:55:00,52.2,13.4,30.03,NNE,17,3.1,6.7,21,0.00,,---,0.00,VWS V14.01,2013-03-07 22:55:00,
2013-03-07 16:00:00,51.3,12.7,30.03,NE,37,2.7,2.7,21,0.00,,---,0.00,VWS V14.01,2013-03-07 23:00:00,
2013-03-07 16:05:00,50.0,9.4,30.03,North,353,3.6,8.1,19,0.00,,---,0.00,VWS V14.01,2013-03-07 23:05:00,
2013-03-07 16:10:00,49.8,9.2,30.03,NNW,329,4.0,8.1,19,0.00,,---,0.00,VWS V14.01,2013-03-07 23:10:00,
2013-03-07 16:15:00,50.2,9.5,30.03,ENE,62,3.1,3.1,19,0.00,,---,0.00,VWS V14.01,2013-03-07 23:15:00,
2013-03-07 16:20:00,49.5,8.9,30.03,ESE,116,2.7,6.3,19,0.00,,---,0.00,VWS V14.01,2013-03-07 23:20:00,
2013-03-07 16:25:00,48.9,8.5,30.03,East,87,3.1,6.3,19,0.00,,---,0.00,VWS V14.01,2013-03-07 23:25:00,
2013-03-07 16:30:00,48.6,8.2,30.03,ESE,107,4.0,4.0,19,0.00,,---,0.00,VWS V14.01,2013-03-07 23:30:00,
2013-03-07 16:35:00,48.2,7.9,30.03,NE,54,2.2,4.0,19,0.00,,---,0.00,VWS V14.01,2013-03-07 23:35:00,
2013-03-07 16:40:00,47.8,7.6,30.03,NE,35,3.1,5.4,19,0.00,,---,0.00,VWS V14.01,2013-03-07 23:40:00,
2013-03-07 16:45:00,48.4,8.0,30.03,NNE,15,2.2,2.2,19,0.00,,---,0.00,VWS V14.01,2013-03-07 23:45:00,
2013-03-07 16:50:00,48.6,8.2,30.03,North,11,3.1,4.0,19,0.00,,---,0.00,VWS V14.01,2013-03-07 23:50:00,
2013-03-07 16:55:00,47.7,7.4,30.03,North,2,4.0,4.9,19,0.00,,---,0.00,VWS V14.01,2013-03-07 23:55:00,
2013-03-07 17:00:00,46.8,6.7,30.03,North,10,3.6,3.6,19,0.00,,---,0.00,VWS V14.01,2013-03-08 00:00:00,
2013-03-07 17:05:00,46.8,6.7,30.03,NE,56,0.0,4.0,19,0.00,,---,0.00,VWS V14.01,2013-03-08 00:05:00,
2013-03-07 17:10:00,46.9,6.8,30.03,NNE,17,2.7,4.0,19,0.00,,---,0.00,VWS V14.01,2013-03-08 00:10:00,
2013-03-07 17:15:00,46.6,6.5,30.03,NNE,20,0.0,0.0,19,0.00,,---,0.00,VWS V14.01,2013-03-08 00:15:00,
2013-03-07 17:20:00,46.2,7.4,30.03,North,8,2.7,4.0,20,0.00,,---,0.00,VWS V14.01,2013-03-08 00:20:00,
2013-03-07 17:25:00,45.1,6.5,30.03,North,4,0.0,5.4,20,0.00,,---,0.00,VWS V14.01,2013-03-08 00:25:00,
2013-03-07 17:30:00,44.2,5.7,30.03,NNE,12,2.7,3.6,20,0.00,,---,0.00,VWS V14.01,2013-03-08 00:30:00,
2013-03-07 17:35:00,43.7,5.3,30.03,North,3,0.0,4.0,20,0.00,,---,0.00,VWS V14.01,2013-03-08 00:35:00,
2013-03-07 17:40:00,43.2,4.8,30.03,NNE,18,0.0,4.0,20,0.00,,---,0.00,VWS V14.01,2013-03-08 00:40:00,
2013-03-07 17:45:00,42.3,5.1,30.03,NNE,18,0.0,0.0,21,0.00,,---,0.00,VWS V14.01,2013-03-08 00:45:00,
2013-03-07 17:50:00,41.9,4.8,30.03,NNE,18,0.0,0.0,21,0.00,,---,0.00,VWS V14.01,2013-03-08 00:50:00,
2013-03-07 17:55:00,41.5,6.5,30.03,NNE,18,0.0,0.0,23,0.00,,---,0.00,VWS V14.01,2013-03-08 00:55:00,
2013-03-07 18:00:00,40.8,5.9,30.03,NNE,18,0.0,0.0,23,0.00,,---,0.00,VWS V14.01,2013-03-08 01:00:00,
2013-03-07 18:06:00,40.1,5.3,30.03,NNE,18,0.0,0.0,23,0.00,,---,0.00,VWS V14.01,2013-03-08 01:06:00,
2013-03-07 18:11:00,39.7,5.0,30.03,NNE,18,0.0,0.0,23,0.00,,---,0.00,VWS V14.01,2013-03-08 01:11:00,
2013-03-07 18:16:00,38.8,5.2,30.03,SW,236,0.0,0.0,24,0.00,,---,0.00,VWS V14.01,2013-03-08 01:16:00,
2013-03-07 18:21:00,38.1,4.5,30.03,WSW,246,0.0,0.0,24,0.00,,---,0.00,VWS V14.01,2013-03-08 01:21:00,
2013-03-07 18:26:00,37.0,6.2,30.03,West,262,0.0,0.0,27,0.00,,---,0.00,VWS V14.01,2013-03-08 01:26:00,
2013-03-07 18:31:00,36.7,5.9,30.03,WSW,256,0.0,0.0,27,0.00,,---,0.00,VWS V14.01,2013-03-08 01:31:00,
2013-03-07 18:36:00,36.1,7.0,30.03,WNW,301,3.6,3.6,29,0.00,,---,0.00,VWS V14.01,2013-03-08 01:36:00,
2013-03-07 18:41:00,36.0,7.6,30.03,WSW,247,0.0,3.6,30,0.00,,---,0.00,VWS V14.01,2013-03-08 01:41:00,
2013-03-07 18:46:00,35.6,7.2,30.03,West,279,0.0,0.0,30,0.00,,---,0.00,VWS V14.01,2013-03-08 01:46:00,
2013-03-07 18:51:00,35.2,6.9,30.03,WNW,295,0.0,0.0,30,0.00,,---,0.00,VWS V14.01,2013-03-08 01:51:00,
2013-03-07 18:56:00,34.9,6.6,30.03,NW,306,0.0,0.0,30,0.00,,---,0.00,VWS V14.01,2013-03-08 01:56:00,
2013-03-07 19:01:00,34.5,6.3,30.03,North,357,0.0,0.0,30,0.00,,---,0.00,VWS V14.01,2013-03-08 02:01:00,
2013-03-07 19:06:00,34.2,6.7,30.03,WNW,283,0.0,5.4,31,0.00,,---,0.00,VWS V14.01,2013-03-08 02:06:00,
2013-03-07 19:11:00,34.2,6.7,30.03,WNW,286,3.1,5.4,31,0.00,,---,0.00,VWS V14.01,2013-03-08 02:11:00,
2013-03-07 19:16:00,34.5,7.0,30.03,NW,317,4.9,4.9,31,0.00,,---,0.00,VWS V14.01,2013-03-08 02:16:00,
2013-03-07 19:21:00,35.4,7.8,30.03,NW,318,2.7,4.9,31,0.00,,---,0.00,VWS V14.01,2013-03-08 02:21:00,
2013-03-07 19:26:00,35.6,7.2,30.03,NW,306,2.7,4.9,30,0.00,,---,0.00,VWS V14.01,2013-03-08 02:26:00,
2013-03-07 19:31:00,35.8,7.4,30.03,WNW,302,2.7,3.1,30,0.00,,---,0.00,VWS V14.01,2013-03-08 02:31:00,
2013-03-07 19:36:00,35.4,7.8,30.03,WNW,303,0.0,3.1,31,0.00,,---,0.00,VWS V14.01,2013-03-08 02:36:00,
2013-03-07 19:41:00,35.4,7.8,30.03,NW,313,2.2,3.6,31,0.00,,---,0.00,VWS V14.01,2013-03-08 02:41:00,
2013-03-07 19:46:00,36.1,8.4,30.03,NW,310,2.7,2.7,31,0.00,,---,0.00,VWS V14.01,2013-03-08 02:46:00,
2013-03-07 19:51:00,36.5,8.0,30.03,NW,319,0.0,4.9,30,0.00,,---,0.00,VWS V14.01,2013-03-08 02:51:00,
2013-03-07 19:56:00,36.9,8.3,30.03,WNW,297,3.1,5.4,30,0.00,,---,0.00,VWS V14.01,2013-03-08 02:56:00,
2013-03-07 20:01:00,37.0,8.5,30.03,NW,320,4.0,4.9,30,0.00,,---,0.00,VWS V14.01,2013-03-08 03:01:00,
2013-03-07 20:06:00,36.9,8.3,30.03,WNW,303,2.2,5.8,30,0.00,,---,0.00,VWS V14.01,2013-03-08 03:06:00,
2013-03-07 20:11:00,36.9,8.3,30.06,WNW,303,3.1,5.8,30,0.00,,---,0.00,VWS V14.01,2013-03-08 03:11:00,
2013-03-07 20:16:00,36.7,8.2,30.06,NW,311,2.7,5.8,30,0.00,,---,0.00,VWS V14.01,2013-03-08 03:16:00,
2013-03-07 20:21:00,36.7,8.2,30.06,NW,307,2.7,6.3,30,0.00,,---,0.00,VWS V14.01,2013-03-08 03:21:00,
2013-03-07 20:26:00,36.7,8.2,30.06,NW,307,4.9,7.6,30,0.00,,---,0.00,VWS V14.01,2013-03-08 03:26:00,
2013-03-07 20:31:00,36.3,7.9,30.06,NW,308,5.4,5.4,30,0.00,,---,0.00,VWS V14.01,2013-03-08 03:31:00,
2013-03-07 20:36:00,36.3,7.9,30.06,WNW,294,3.6,5.4,30,0.00,,---,0.00,VWS V14.01,2013-03-08 03:36:00,
2013-03-07 20:41:00,36.0,8.3,30.06,NNW,337,2.7,5.4,31,0.00,,---,0.00,VWS V14.01,2013-03-08 03:41:00,
2013-03-07 20:46:00,35.4,7.8,30.06,NNW,328,3.6,4.0,31,0.00,,---,0.00,VWS V14.01,2013-03-08 03:46:00,
2013-03-07 20:51:00,35.4,7.8,30.06,NW,304,2.2,4.9,31,0.00,,---,0.00,VWS V14.01,2013-03-08 03:51:00,
2013-03-07 20:56:00,35.1,7.5,30.06,WNW,300,2.7,4.9,31,0.00,,---,0.00,VWS V14.01,2013-03-08 03:56:00,
2013-03-07 21:01:00,34.7,7.2,30.06,NW,309,4.9,4.9,31,0.00,,---,0.00,VWS V14.01,2013-03-08 04:01:00,
2013-03-07 21:06:00,34.7,7.9,30.06,NW,304,3.6,5.8,32,0.00,,---,0.00,VWS V14.01,2013-03-08 04:06:00,
2013-03-07 21:11:00,34.9,8.0,30.06,WNW,303,3.6,5.8,32,0.00,,---,0.00,VWS V14.01,2013-03-08 04:11:00,
2013-03-07 21:16:00,34.9,8.0,30.06,WNW,290,2.7,3.6,32,0.00,,---,0.00,VWS V14.01,2013-03-08 04:16:00,
2013-03-07 21:21:00,34.5,7.7,30.06,NW,315,5.4,5.4,32,0.00,,---,0.00,VWS V14.01,2013-03-08 04:21:00,
2013-03-07 21:26:00,34.5,7.7,30.06,WNW,299,3.6,5.4,32,0.00,,---,0.00,VWS V14.01,2013-03-08 04:26:00,
2013-03-07 21:31:00,34.5,7.7,30.06,NW,313,3.6,5.4,32,0.00,,---,0.00,VWS V14.01,2013-03-08 04:31:00,
2013-03-07 21:36:00,34.2,7.4,30.06,West,272,3.6,5.4,32,0.00,,---,0.00,VWS V14.01,2013-03-08 04:36:00,
2013-03-07 21:41:00,33.6,6.9,30.06,NW,309,3.1,5.4,32,0.00,,---,0.00,VWS V14.01,2013-03-08 04:41:00,
2013-03-07 21:46:00,32.5,6.6,30.06,WNW,285,2.7,4.0,33,0.00,,---,0.00,VWS V14.01,2013-03-08 04:46:00,
2013-03-07 21:51:00,32.2,6.3,30.06,WNW,298,2.7,4.0,33,0.00,,---,0.00,VWS V14.01,2013-03-08 04:51:00,
2013-03-07 21:56:00,31.5,5.7,30.06,WNW,302,0.0,4.0,33,0.00,,---,0.00,VWS V14.01,2013-03-08 04:56:00,
2013-03-07 22:00:00,31.1,6.0,30.06,WNW,295,0.0,4.0,34,0.00,,---,0.00,VWS V14.01,2013-03-08 05:00:00,
2013-03-07 22:05:00,30.9,5.9,30.06,WNW,287,0.0,0.0,34,0.00,,---,0.00,VWS V14.01,2013-03-08 05:05:00,
2013-03-07 22:10:00,30.4,5.4,30.06,WNW,287,0.0,0.0,34,0.00,,---,0.00,VWS V14.01,2013-03-08 05:10:00,
2013-03-07 22:15:00,29.7,4.7,30.06,WNW,287,0.0,0.0,34,0.00,,---,0.00,VWS V14.01,2013-03-08 05:15:00,
2013-03-07 22:20:00,29.1,4.9,30.06,WNW,287,0.0,0.0,35,0.00,,---,0.00,VWS V14.01,2013-03-08 05:20:00,
2013-03-07 22:25:00,28.8,5.8,30.06,WNW,287,0.0,0.0,37,0.00,,---,0.00,VWS V14.01,2013-03-08 05:25:00,
2013-03-07 22:30:00,28.2,5.9,30.06,WNW,287,0.0,0.0,38,0.00,,---,0.00,VWS V14.01,2013-03-08 05:30:00,
2013-03-07 22:35:00,28.0,7.4,30.06,WNW,287,0.0,0.0,41,0.00,,---,0.00,VWS V14.01,2013-03-08 05:35:00,
2013-03-07 22:40:00,27.9,6.7,30.06,WNW,287,0.0,0.0,40,0.00,,---,0.00,VWS V14.01,2013-03-08 05:40:00,
2013-03-07 22:45:00,27.5,6.4,30.06,West,264,0.0,0.0,40,0.00,,---,0.00,VWS V14.01,2013-03-08 05:45:00,
2013-03-07 22:50:00,27.0,5.9,30.06,West,264,0.0,0.0,40,0.00,,---,0.00,VWS V14.01,2013-03-08 05:50:00,
2013-03-07 22:55:00,26.6,6.1,30.06,West,264,0.0,0.0,41,0.00,,---,0.00,VWS V14.01,2013-03-08 05:55:00,
2013-03-07 23:00:00,26.2,6.3,30.06,West,264,0.0,0.0,42,0.00,,---,0.00,VWS V14.01,2013-03-08 06:00:00,
2013-03-07 23:05:00,26.1,6.1,30.06,WSW,243,0.0,0.0,42,0.00,,---,0.00,VWS V14.01,2013-03-08 06:05:00,
2013-03-07 23:10:00,25.9,6.5,30.06,WSW,243,0.0,0.0,43,0.00,,---,0.00,VWS V14.01,2013-03-08 06:10:00,
2013-03-07 23:15:00,25.7,6.8,30.06,WSW,246,0.0,0.0,44,0.00,,---,0.00,VWS V14.01,2013-03-08 06:15:00,
2013-03-07 23:20:00,25.3,6.5,30.06,WSW,246,0.0,0.0,44,0.00,,---,0.00,VWS V14.01,2013-03-08 06:20:00,
2013-03-07 23:25:00,25.3,6.5,30.06,WSW,246,0.0,0.0,44,0.00,,---,0.00,VWS V14.01,2013-03-08 06:25:00,
2013-03-07 23:30:00,25.0,6.2,30.06,WSW,246,0.0,0.0,44,0.00,,---,0.00,VWS V14.01,2013-03-08 06:30:00,
2013-03-07 23:35:00,24.8,7.0,30.06,WSW,246,0.0,0.0,46,0.00,,---,0.00,VWS V14.01,2013-03-08 06:35:00,
2013-03-07 23:40:00,24.8,7.4,30.06,WSW,246,0.0,0.0,47,0.00,,---,0.00,VWS V14.01,2013-03-08 06:40:00,
2013-03-07 23:45:00,25.0,7.6,30.06,WSW,246,0.0,0.0,47,0.00,,---,0.00,VWS V14.01,2013-03-08 06:45:00,
2013-03-07 23:50:00,24.8,8.4,30.06,WSW,246,0.0,0.0,49,0.00,,---,0.00,VWS V14.01,2013-03-08 06:50:00,
2013-03-07 23:55:00,24.4,7.6,30.06,WSW,241,0.0,0.0,48,0.00,,---,0.00,VWS V14.01,2013-03-08 06:55:00,